Time;durP1;ratioP1;P1;durP2;ratioP2;P2;SDS_P1;SDS_P2;PMS_P1;PMS_P2;Temp;Humidity;BMP_temperature;BMP_pressure;BME280_temperature;BME280_humidity;BME280_pressure;Samples;Min_cycle;Max_cycle;Signal;HPM_P1;HPM_P2
2022/12/06 00:01:55;;;;;;;9.67;8.83;;;5.00;99.90;;;;;;4995056;28;20210;-81
2022/12/06 00:04:21;;;;;;;9.27;8.20;;;4.90;99.90;;;;;;4984498;28;20250;-80
2022/12/06 00:06:50;;;;;;;9.10;8.30;;;4.90;99.90;;;;;;4993143;28;20198;-82
2022/12/06 00:09:21;;;;;;;9.90;9.00;;;4.90;99.90;;;;;;4993874;28;20218;-81
2022/12/06 00:11:47;;;;;;;10.50;9.50;;;4.80;99.90;;;;;;4988106;28;20321;-83
2022/12/06 00:14:13;;;;;;;10.37;9.30;;;4.80;99.90;;;;;;4998557;28;20206;-81
2022/12/06 00:16:39;;;;;;;9.57;8.70;;;4.90;99.90;;;;;;4991494;28;20278;-80
2022/12/06 00:19:05;;;;;;;11.80;9.67;;;5.00;99.90;;;;;;4987708;28;20218;-83
2022/12/06 00:21:33;;;;;;;11.50;10.40;;;4.90;99.90;;;;;;5003857;28;20189;-82
2022/12/06 00:24:06;;;;;;;10.80;9.80;;;4.90;99.90;;;;;;4985788;28;20202;-82
2022/12/06 00:26:35;;;;;;;10.57;9.67;;;5.00;99.90;;;;;;4992190;28;20426;-80
2022/12/06 00:29:01;;;;;;;10.73;9.73;;;4.90;99.90;;;;;;4985746;28;20211;-81
2022/12/06 00:31:29;;;;;;;11.47;10.27;;;4.90;99.90;;;;;;4993242;28;20194;-82
2022/12/06 00:33:56;;;;;;;10.80;9.70;;;4.80;99.90;;;;;;4996134;28;20739;-82
2022/12/06 00:36:30;;;;;;;9.77;8.87;;;4.70;99.90;;;;;;5006203;28;20190;-85
2022/12/06 00:38:59;;;;;;;11.40;10.17;;;4.90;99.90;;;;;;5004953;28;20186;-84
2022/12/06 00:41:25;;;;;;;11.10;10.03;;;5.00;99.90;;;;;;5012514;28;20182;-82
2022/12/06 00:43:52;;;;;;;9.93;8.97;;;5.10;99.90;;;;;;5023827;28;20235;-84
2022/12/06 00:46:24;;;;;;;10.63;9.53;;;5.10;99.90;;;;;;5015597;28;20559;-84
2022/12/06 00:48:51;;;;;;;9.83;8.83;;;5.20;99.90;;;;;;5001317;28;20214;-82
2022/12/06 00:51:19;;;;;;;10.37;9.27;;;5.20;99.90;;;;;;4991588;28;20201;-83
2022/12/06 00:53:45;;;;;;;10.83;9.90;;;5.20;99.90;;;;;;4999987;28;20202;-83
2022/12/06 00:56:11;;;;;;;9.60;8.70;;;5.20;99.90;;;;;;4998451;28;20194;-81
2022/12/06 00:58:37;;;;;;;10.10;9.10;;;5.30;99.90;;;;;;4993437;28;20197;-82
2022/12/06 01:01:30;;;;;;;10.70;9.70;;;5.20;99.90;;;;;;4992767;28;20215;-81
2022/12/06 01:03:58;;;;;;;9.97;8.97;;;5.00;99.90;;;;;;4993001;28;20227;-82
2022/12/06 01:06:26;;;;;;;10.70;9.77;;;4.90;99.90;;;;;;4996531;28;20212;-82
2022/12/06 01:08:54;;;;;;;10.07;9.17;;;4.70;99.90;;;;;;4996125;28;20209;-80
2022/12/06 01:11:21;;;;;;;9.50;8.60;;;4.70;99.90;;;;;;4993297;28;20206;-82
2022/12/06 01:13:46;;;;;;;10.00;9.00;;;4.80;99.90;;;;;;4991736;28;20221;-81
2022/12/06 01:16:15;;;;;;;10.63;9.63;;;4.90;99.90;;;;;;4997237;28;20186;-81
2022/12/06 01:18:42;;;;;;;9.10;8.20;;;4.80;99.90;;;;;;4995427;28;20237;-82
2022/12/06 01:21:17;;;;;;;9.53;8.53;;;4.90;99.90;;;;;;4989548;28;20183;-82
2022/12/06 01:23:44;;;;;;;9.17;8.27;;;4.90;99.90;;;;;;4994573;28;20209;-82
2022/12/06 01:26:21;;;;;;;9.80;8.90;;;5.10;99.90;;;;;;5015569;28;20186;-82
2022/12/06 01:28:47;;;;;;;9.83;8.93;;;5.10;99.90;;;;;;4988384;28;20204;-82
2022/12/06 01:31:14;;;;;;;9.57;8.60;;;5.10;99.90;;;;;;4992562;28;20183;-83
2022/12/06 01:33:40;;;;;;;10.43;9.07;;;5.10;99.90;;;;;;4998485;28;20217;-82
2022/12/06 01:36:06;;;;;;;10.27;9.27;;;5.10;99.90;;;;;;4997831;28;20191;-83
2022/12/06 01:38:32;;;;;;;10.83;9.80;;;5.10;99.90;;;;;;4990130;28;20191;-82
2022/12/06 01:40:58;;;;;;;10.00;9.10;;;4.90;99.90;;;;;;4994079;28;20186;-82
2022/12/06 01:43:40;;;;;;;11.03;10.03;;;5.00;99.90;;;;;;5002907;28;20557;-83
2022/12/06 01:46:20;;;;;;;11.23;10.03;;;5.00;99.90;;;;;;4965216;28;20175;-83
2022/12/06 01:48:49;;;;;;;10.60;9.60;;;5.00;99.90;;;;;;4988421;28;20257;-82
2022/12/06 01:51:15;;;;;;;10.20;9.20;;;5.10;99.90;;;;;;5000383;28;20198;-83
2022/12/06 01:53:44;;;;;;;10.20;9.30;;;5.00;99.90;;;;;;4990604;28;20563;-84
2022/12/06 01:56:10;;;;;;;9.80;8.80;;;5.10;99.90;;;;;;4997188;28;20648;-81
2022/12/06 01:58:39;;;;;;;11.13;9.87;;;5.10;99.90;;;;;;5003502;28;20190;-82
2022/12/06 02:01:08;;;;;;;10.07;9.07;;;5.30;99.90;;;;;;4983740;28;20202;-84
2022/12/06 02:03:34;;;;;;;8.50;7.67;;;5.40;99.90;;;;;;4987644;28;20274;-81
2022/12/06 02:06:03;;;;;;;9.13;8.23;;;5.40;99.90;;;;;;4994690;28;20191;-82
2022/12/06 02:08:30;;;;;;;9.83;8.93;;;5.40;99.90;;;;;;4995052;28;20270;-81
2022/12/06 02:10:57;;;;;;;9.63;8.73;;;5.30;99.90;;;;;;4990650;28;20680;-82
2022/12/06 02:13:24;;;;;;;10.00;9.10;;;5.30;99.90;;;;;;4994234;28;20241;-81
2022/12/06 02:16:00;;;;;;;9.10;8.23;;;5.30;99.90;;;;;;4998392;28;20687;-82
2022/12/06 02:18:31;;;;;;;9.37;8.57;;;5.30;99.90;;;;;;4995248;28;20205;-81
2022/12/06 02:21:13;;;;;;;9.23;8.33;;;5.50;99.90;;;;;;4997456;28;20190;-82
2022/12/06 02:23:48;;;;;;;9.37;8.47;;;5.50;99.90;;;;;;4976070;28;20249;-83
2022/12/06 02:26:24;;;;;;;10.77;9.67;;;5.50;99.90;;;;;;4990303;28;20178;-81
2022/12/06 02:29:11;;;;;;;9.20;8.40;;;5.30;99.90;;;;;;4996817;28;20199;-81
2022/12/06 02:31:45;;;;;;;9.63;7.70;;;5.20;99.90;;;;;;4991453;28;20202;-82
2022/12/06 02:34:19;;;;;;;9.87;8.90;;;5.30;99.90;;;;;;4965878;28;20247;-82
2022/12/06 02:37:08;;;;;;;9.23;8.40;;;5.30;99.90;;;;;;4986164;28;20205;-82
2022/12/06 02:39:44;;;;;;;8.63;7.83;;;5.30;99.90;;;;;;4993304;28;20183;-81
2022/12/06 02:42:24;;;;;;;8.73;7.90;;;5.30;99.90;;;;;;5000888;28;20639;-82
2022/12/06 02:44:53;;;;;;;8.90;8.00;;;5.30;99.90;;;;;;4992550;28;20596;-81
2022/12/06 02:47:22;;;;;;;8.43;7.63;;;5.50;99.90;;;;;;4982547;28;20187;-83
2022/12/06 02:49:49;;;;;;;9.17;8.33;;;5.50;99.90;;;;;;4999623;28;20189;-81
2022/12/06 02:52:17;;;;;;;8.90;8.10;;;5.60;99.90;;;;;;5000786;28;20286;-81
2022/12/06 02:54:46;;;;;;;9.10;8.27;;;5.60;99.90;;;;;;4993993;28;20208;-82
2022/12/06 02:57:12;;;;;;;8.83;8.00;;;5.60;99.90;;;;;;5009123;28;20273;-82
2022/12/06 02:59:38;;;;;;;8.00;7.20;;;5.60;99.90;;;;;;4991988;28;20182;-82
2022/12/06 03:02:09;;;;;;;7.70;7.00;;;5.50;99.90;;;;;;4989572;28;20246;-82
2022/12/06 03:04:45;;;;;;;7.97;7.17;;;5.50;99.90;;;;;;4994203;28;20219;-80
2022/12/06 03:07:43;;;;;;;8.43;7.63;;;5.50;99.90;;;;;;4988166;28;20617;-82
2022/12/06 03:10:20;;;;;;;8.30;7.50;;;5.50;99.90;;;;;;4993079;28;20188;-81
2022/12/06 03:12:54;;;;;;;7.20;6.57;;;5.60;99.90;;;;;;4995725;28;20237;-82
2022/12/06 03:15:42;;;;;;;8.20;7.40;;;5.60;99.90;;;;;;4992854;28;20198;-83
2022/12/06 03:18:30;;;;;;;8.30;7.50;;;5.60;99.90;;;;;;4985901;28;20222;-82
2022/12/06 03:21:24;;;;;;;8.03;7.33;;;5.70;99.90;;;;;;4979249;28;20201;-82
2022/12/06 03:23:50;;;;;;;8.23;7.53;;;5.60;99.90;;;;;;4986345;28;20228;-81
2022/12/06 03:26:21;;;;;;;8.37;7.53;;;5.60;99.90;;;;;;4992595;28;20264;-84
2022/12/06 03:28:50;;;;;;;9.83;9.00;;;5.60;99.90;;;;;;4996108;28;20213;-81
2022/12/06 03:31:16;;;;;;;12.93;9.23;;;5.50;99.90;;;;;;4994170;28;20893;-81
2022/12/06 03:33:56;;;;;;;10.43;9.43;;;5.30;99.90;;;;;;5010332;28;20206;-82
2022/12/06 03:36:24;;;;;;;9.03;8.23;;;5.30;99.90;;;;;;4967546;28;20203;-83
2022/12/06 03:39:02;;;;;;;10.67;9.67;;;5.30;99.90;;;;;;4995007;28;20185;-83
2022/12/06 03:41:40;;;;;;;10.40;9.47;;;5.20;99.90;;;;;;4992211;28;20560;-82
2022/12/06 03:44:06;;;;;;;9.93;9.03;;;5.10;99.90;;;;;;4991728;28;20198;-80
2022/12/06 03:46:39;;;;;;;10.07;9.13;;;5.20;99.90;;;;;;4985624;28;20858;-83
2022/12/06 03:49:13;;;;;;;11.53;10.43;;;5.10;99.90;;;;;;4974501;28;20198;-82
2022/12/06 03:51:41;;;;;;;11.13;10.13;;;5.00;99.90;;;;;;4992254;28;20215;-81
2022/12/06 03:54:07;;;;;;;10.23;9.23;;;4.90;99.90;;;;;;4988685;28;20221;-83
2022/12/06 03:56:35;;;;;;;10.10;9.10;;;4.90;99.90;;;;;;5010920;28;20652;-82
2022/12/06 03:59:10;;;;;;;9.87;8.97;;;5.00;99.90;;;;;;4996429;28;20235;-83
2022/12/06 04:01:37;;;;;;;10.37;9.33;;;5.10;99.90;;;;;;4990387;28;20222;-81
2022/12/06 04:04:03;;;;;;;10.07;9.23;;;5.10;99.90;;;;;;4994580;28;20225;-82
2022/12/06 04:06:29;;;;;;;9.93;8.93;;;5.00;99.90;;;;;;4991797;28;20191;-81
2022/12/06 04:09:51;;;;;;;11.20;10.10;;;4.90;99.90;;;;;;4994704;28;20201;-84
2022/12/06 04:11:43;;;;;;;11.17;10.07;;;4.80;99.90;;;;;;4998087;28;20195;-83
2022/12/06 04:14:09;;;;;;;10.77;9.77;;;4.80;99.90;;;;;;4994764;28;20672;-83
2022/12/06 04:19:22;;;;;;;11.23;10.13;;;4.70;99.90;;;;;;4994246;28;20221;-81
2022/12/06 04:24:32;;;;;;;11.00;9.90;;;4.70;99.90;;;;;;4995487;28;20828;-81
2022/12/06 04:28:40;;;;;;;10.97;9.90;;;4.70;99.90;;;;;;4995478;28;20183;-80
2022/12/06 04:40:41;;;;;;;12.10;10.87;;;4.80;99.90;;;;;;4991059;28;20262;-81
2022/12/06 04:45:53;;;;;;;11.80;10.50;;;4.60;99.90;;;;;;4992612;28;20271;-81
2022/12/06 04:48:19;;;;;;;11.97;10.77;;;4.70;99.90;;;;;;4998763;28;20207;-81
2022/12/06 04:50:49;;;;;;;12.00;10.90;;;4.60;99.90;;;;;;5001635;28;20178;-82
2022/12/06 04:53:15;;;;;;;12.63;11.33;;;4.60;99.90;;;;;;5011655;28;20233;-82
2022/12/06 04:55:48;;;;;;;12.97;11.67;;;4.50;99.90;;;;;;4993368;28;20273;-82
2022/12/06 04:58:14;;;;;;;12.83;11.43;;;4.50;99.90;;;;;;5009793;28;20196;-83
2022/12/06 05:00:43;;;;;;;13.73;12.40;;;4.40;99.90;;;;;;4999491;28;20190;-83
2022/12/06 05:03:17;;;;;;;16.87;12.00;;;4.40;99.90;;;;;;4994761;28;20203;-81
2022/12/06 05:05:43;;;;;;;14.00;12.43;;;4.40;99.90;;;;;;4995711;28;20190;-82
2022/12/06 05:08:09;;;;;;;16.00;12.93;;;4.30;99.90;;;;;;4989958;28;20254;-82
2022/12/06 05:10:35;;;;;;;15.00;13.50;;;4.30;99.90;;;;;;4976371;28;20183;-81
2022/12/06 05:13:01;;;;;;;15.37;12.93;;;4.20;99.90;;;;;;4988645;28;20222;-82
2022/12/06 05:15:27;;;;;;;14.50;13.00;;;4.30;99.90;;;;;;4990151;28;20186;-82
2022/12/06 05:17:53;;;;;;;13.63;12.17;;;4.20;99.90;;;;;;4993512;28;20186;-82
2022/12/06 05:20:19;;;;;;;13.37;11.97;;;4.20;99.90;;;;;;4989682;28;20187;-80
2022/12/06 05:22:45;;;;;;;13.43;11.97;;;4.30;99.90;;;;;;4993587;28;20202;-82
2022/12/06 05:25:10;;;;;;;14.07;12.53;;;4.30;99.90;;;;;;4987891;28;20237;-83
2022/12/06 05:27:36;;;;;;;14.17;12.53;;;4.30;99.90;;;;;;4991241;28;20188;-84
2022/12/06 05:30:02;;;;;;;15.33;12.67;;;4.30;99.90;;;;;;4990930;28;20190;-83
2022/12/06 05:32:28;;;;;;;14.97;13.37;;;4.30;99.90;;;;;;5003808;28;20260;-83
2022/12/06 05:34:53;;;;;;;13.07;11.80;;;4.30;99.90;;;;;;4992590;28;20492;-82
2022/12/06 05:37:19;;;;;;;13.43;12.03;;;4.40;99.90;;;;;;4996710;28;20178;-83
2022/12/06 05:39:45;;;;;;;13.70;12.30;;;4.40;99.90;;;;;;4991546;28;20186;-82
2022/12/06 05:42:10;;;;;;;14.37;12.30;;;4.60;99.90;;;;;;4992947;28;20202;-82
2022/12/06 05:44:36;;;;;;;13.20;11.90;;;4.70;99.90;;;;;;4991872;28;20274;-81
2022/12/06 05:47:02;;;;;;;14.07;12.67;;;4.50;99.90;;;;;;5003399;28;20190;-83
2022/12/06 05:49:27;;;;;;;13.63;12.30;;;4.40;99.90;;;;;;5003103;28;20211;-82
2022/12/06 05:51:53;;;;;;;15.07;13.47;;;4.50;99.90;;;;;;5003866;28;20186;-80
2022/12/06 05:54:19;;;;;;;16.40;13.77;;;4.40;99.90;;;;;;4997424;28;20214;-82
2022/12/06 05:56:45;;;;;;;15.17;13.60;;;4.40;99.90;;;;;;4989731;28;20190;-81
2022/12/06 05:59:10;;;;;;;13.73;12.40;;;4.40;99.90;;;;;;4992622;28;20216;-83
2022/12/06 06:01:36;;;;;;;16.40;13.57;;;4.50;99.90;;;;;;4984449;28;20736;-81
2022/12/06 06:04:02;;;;;;;14.50;12.97;;;4.50;99.90;;;;;;4991376;28;20238;-82
2022/12/06 06:06:27;;;;;;;14.53;13.03;;;4.50;99.90;;;;;;4988382;28;20194;-82
2022/12/06 06:08:53;;;;;;;16.50;13.77;;;4.50;99.90;;;;;;4986364;28;20201;-82
2022/12/06 06:11:20;;;;;;;14.73;13.00;;;4.40;99.90;;;;;;4986594;28;20202;-82
2022/12/06 06:13:45;;;;;;;15.17;13.10;;;4.40;99.90;;;;;;4986383;28;20289;-82
2022/12/06 06:16:11;;;;;;;14.73;12.87;;;4.50;99.90;;;;;;4995700;28;20213;-82
2022/12/06 06:18:37;;;;;;;13.83;12.30;;;4.60;99.90;;;;;;4994360;28;20230;-83
2022/12/06 06:21:03;;;;;;;14.53;12.97;;;4.70;99.90;;;;;;4997305;28;20186;-83
2022/12/06 06:23:29;;;;;;;13.60;12.30;;;4.70;99.90;;;;;;4989967;28;20207;-83
2022/12/06 06:25:54;;;;;;;13.57;12.17;;;4.80;99.90;;;;;;4984573;28;20344;-81
2022/12/06 06:28:21;;;;;;;14.13;12.73;;;4.70;99.90;;;;;;4989708;28;20211;-82
2022/12/06 06:30:48;;;;;;;12.87;11.33;;;4.80;99.90;;;;;;4988903;28;20222;-83
2022/12/06 06:33:14;;;;;;;12.37;11.03;;;4.90;99.90;;;;;;4992019;28;20222;-82
2022/12/06 06:35:41;;;;;;;11.97;10.80;;;5.00;99.90;;;;;;4992030;28;20194;-82
2022/12/06 06:38:07;;;;;;;19.60;18.00;;;4.90;99.90;;;;;;4989256;28;20252;-81
2022/12/06 06:40:33;;;;;;;13.43;12.13;;;5.10;99.90;;;;;;4992625;28;20249;-82
2022/12/06 06:43:16;;;;;;;12.30;11.20;;;5.10;99.90;;;;;;4986446;28;20219;-82
2022/12/06 06:45:52;;;;;;;12.70;11.57;;;5.10;99.90;;;;;;4988851;28;20191;-80
2022/12/06 06:48:18;;;;;;;13.17;11.83;;;5.20;99.90;;;;;;4991905;28;20212;-82
2022/12/06 06:50:44;;;;;;;13.20;11.90;;;5.10;99.90;;;;;;4974318;28;20215;-82
2022/12/06 06:53:10;;;;;;;13.97;12.47;;;5.10;99.90;;;;;;4986922;28;20230;-84
2022/12/06 06:55:37;;;;;;;14.50;13.00;;;4.90;99.90;;;;;;4990506;28;20183;-83
2022/12/06 06:58:04;;;;;;;14.10;12.73;;;4.80;99.90;;;;;;4984442;28;20255;-82
2022/12/06 07:00:29;;;;;;;13.60;12.30;;;4.70;99.90;;;;;;4988786;28;20211;-82
2022/12/06 07:02:55;;;;;;;14.87;12.63;;;4.80;99.90;;;;;;4973126;28;20724;-80
2022/12/06 07:05:21;;;;;;;13.27;11.13;;;4.90;99.90;;;;;;4988385;28;20522;-82
2022/12/06 07:07:47;;;;;;;12.97;11.63;;;5.10;99.90;;;;;;4987846;28;20182;-82
2022/12/06 07:10:13;;;;;;;12.97;11.40;;;5.00;99.90;;;;;;4987829;28;20179;-83
2022/12/06 07:12:38;;;;;;;12.57;11.30;;;5.10;99.90;;;;;;4982608;28;20285;-82
2022/12/06 07:15:05;;;;;;;12.43;11.20;;;5.10;99.90;;;;;;4996473;28;20186;-84
2022/12/06 07:17:31;;;;;;;11.47;10.40;;;5.10;99.90;;;;;;4999184;28;20257;-83
2022/12/06 07:19:56;;;;;;;12.73;11.53;;;5.20;99.90;;;;;;5012082;28;20194;-84
2022/12/06 07:22:22;;;;;;;14.87;13.43;;;5.20;99.90;;;;;;5024504;28;20178;-83
2022/12/06 07:24:48;;;;;;;15.87;14.47;;;5.20;99.90;;;;;;5007166;28;20221;-82
2022/12/06 07:27:14;;;;;;;13.03;11.63;;;5.20;99.90;;;;;;4992105;28;20209;-81
2022/12/06 07:29:40;;;;;;;11.40;10.10;;;5.20;99.90;;;;;;4995179;28;20221;-81
2022/12/06 07:32:06;;;;;;;11.57;10.47;;;5.10;99.90;;;;;;4989940;28;20505;-80
2022/12/06 07:34:32;;;;;;;11.80;10.13;;;5.10;99.90;;;;;;4989390;28;20214;-80
2022/12/06 07:36:58;;;;;;;10.60;9.60;;;5.30;99.90;;;;;;4982935;28;20186;-80
2022/12/06 07:39:24;;;;;;;11.70;10.60;;;5.30;99.90;;;;;;4987960;28;20195;-81
2022/12/06 07:47:18;;;;;;;10.80;9.80;;;4.90;99.90;;;;;;4992181;28;20239;-81
2022/12/06 07:49:43;;;;;;;10.97;9.90;;;4.80;99.90;;;;;;4992594;28;20213;-82
2022/12/06 07:52:09;;;;;;;10.87;9.80;;;4.80;99.90;;;;;;4992463;28;20646;-82
2022/12/06 07:54:35;;;;;;;12.80;10.13;;;4.80;99.90;;;;;;4995460;28;20262;-82
2022/12/06 07:57:00;;;;;;;10.83;9.27;;;4.80;99.90;;;;;;4991850;28;20206;-82
2022/12/06 07:59:26;;;;;;;11.03;9.87;;;4.80;99.90;;;;;;4988317;28;20202;-82
2022/12/06 08:01:53;;;;;;;9.30;8.40;;;5.00;99.90;;;;;;4985978;28;20239;-81
2022/12/06 08:04:18;;;;;;;8.50;7.47;;;5.00;99.90;;;;;;4986084;28;20207;-82
2022/12/06 08:06:44;;;;;;;7.60;6.83;;;5.00;99.90;;;;;;4988023;28;20202;-82
2022/12/06 08:09:10;;;;;;;7.10;6.50;;;5.10;99.90;;;;;;4991040;28;20203;-82
2022/12/06 08:11:36;;;;;;;6.50;5.90;;;5.20;99.90;;;;;;4994110;28;20191;-82
2022/12/06 08:14:03;;;;;;;6.67;6.13;;;5.30;99.90;;;;;;4995041;28;20849;-82
2022/12/06 08:16:29;;;;;;;7.47;6.77;;;5.30;99.90;;;;;;4986493;28;20196;-80
2022/12/06 08:18:55;;;;;;;6.50;5.90;;;5.30;99.90;;;;;;4983810;28;20211;-82
2022/12/06 08:21:21;;;;;;;6.03;5.43;;;5.30;99.90;;;;;;4976122;28;20432;-82
2022/12/06 08:23:47;;;;;;;7.30;6.10;;;5.30;99.90;;;;;;4979077;28;20623;-81
2022/12/06 08:26:14;;;;;;;6.57;5.90;;;5.20;99.90;;;;;;4972921;28;20202;-83
2022/12/06 08:28:42;;;;;;;5.90;5.30;;;5.30;99.90;;;;;;4981524;28;20285;-84
2022/12/06 08:31:25;;;;;;;6.53;5.30;;;5.30;99.90;;;;;;4981233;28;20190;-82
2022/12/06 08:33:51;;;;;;;5.67;5.07;;;5.30;99.90;;;;;;4980092;28;20211;-82
2022/12/06 08:36:19;;;;;;;5.57;5.07;;;5.30;99.90;;;;;;4976813;28;20195;-81
2022/12/06 08:38:46;;;;;;;6.17;5.57;;;5.30;99.90;;;;;;4978638;28;20298;-83
2022/12/06 08:43:58;;;;;;;5.13;4.67;;;5.40;99.90;;;;;;4994614;28;20232;-80
2022/12/06 08:46:25;;;;;;;5.40;4.90;;;5.40;99.90;;;;;;4984776;28;20202;-81
2022/12/06 08:48:51;;;;;;;5.37;4.83;;;5.50;99.90;;;;;;4984176;28;20314;-82
2022/12/06 08:51:17;;;;;;;5.70;5.20;;;5.40;99.90;;;;;;4979120;28;20190;-84
2022/12/06 08:53:42;;;;;;;5.33;4.83;;;5.50;99.90;;;;;;4976289;28;20215;-82
2022/12/06 08:56:08;;;;;;;4.93;4.53;;;5.40;99.90;;;;;;4980791;28;20266;-82
2022/12/06 08:58:34;;;;;;;4.90;4.50;;;5.50;99.90;;;;;;4982732;28;20182;-81
2022/12/06 09:01:00;;;;;;;6.90;4.87;;;5.30;99.90;;;;;;4977902;28;20195;-81
2022/12/06 09:03:26;;;;;;;6.03;5.33;;;5.50;99.90;;;;;;4983111;28;20219;-81
2022/12/06 09:05:51;;;;;;;5.57;4.93;;;5.50;99.90;;;;;;4981953;28;20194;-81
2022/12/06 09:08:17;;;;;;;5.50;4.90;;;5.50;99.90;;;;;;4979221;28;20402;-82
2022/12/06 09:10:43;;;;;;;5.40;4.87;;;5.30;99.90;;;;;;4979061;28;20226;-81
2022/12/06 09:13:09;;;;;;;9.30;5.80;;;5.30;99.90;;;;;;4984379;28;20212;-81
2022/12/06 09:15:36;;;;;;;6.23;5.63;;;5.10;99.90;;;;;;4985414;28;20183;-83
2022/12/06 09:18:02;;;;;;;7.07;5.60;;;4.90;99.90;;;;;;4980200;28;20201;-82
2022/12/06 09:20:27;;;;;;;5.77;5.27;;;4.70;99.90;;;;;;4996513;28;20203;-83
2022/12/06 09:22:53;;;;;;;6.47;5.87;;;4.70;99.90;;;;;;4976977;28;20218;-82
2022/12/06 09:25:19;;;;;;;6.27;5.50;;;4.60;99.90;;;;;;4975270;28;20191;-82
2022/12/06 09:27:45;;;;;;;6.00;5.33;;;4.70;99.90;;;;;;4992412;28;20278;-83
2022/12/06 09:30:11;;;;;;;6.03;5.30;;;4.80;99.90;;;;;;4979329;28;20186;-82
2022/12/06 09:32:37;;;;;;;9.43;5.47;;;5.00;99.90;;;;;;4977110;28;20187;-81
2022/12/06 09:35:02;;;;;;;5.40;4.90;;;5.10;99.90;;;;;;4979236;28;21016;-81
2022/12/06 09:37:28;;;;;;;7.73;5.00;;;5.30;99.90;;;;;;4976254;28;20484;-81
2022/12/06 09:40:00;;;;;;;5.60;5.10;;;5.40;99.90;;;;;;4976481;28;20727;-81
2022/12/06 09:42:35;;;;;;;5.63;5.03;;;5.30;99.90;;;;;;4981875;28;20199;-81
2022/12/06 09:45:25;;;;;;;6.23;5.60;;;5.30;99.90;;;;;;4978916;28;20195;-81
2022/12/06 09:48:14;;;;;;;12.47;11.17;;;5.30;99.90;;;;;;4976568;28;20242;-80
2022/12/06 09:51:09;;;;;;;7.30;6.60;;;5.40;99.90;;;;;;4976523;28;20198;-80
2022/12/06 09:53:47;;;;;;;6.77;6.10;;;5.40;99.90;;;;;;4975051;28;20211;-83
2022/12/06 09:56:35;;;;;;;9.13;7.77;;;5.40;99.90;;;;;;4976407;28;20183;-82
2022/12/06 09:59:19;;;;;;;9.10;8.37;;;5.50;99.90;;;;;;4976717;28;20250;-83
2022/12/06 10:01:56;;;;;;;6.83;6.23;;;5.50;99.90;;;;;;4980459;28;20250;-81
2022/12/06 10:05:16;;;;;;;5.80;5.17;;;5.60;99.90;;;;;;4975734;28;20221;-82
2022/12/06 10:08:08;;;;;;;6.87;6.27;;;5.50;99.90;;;;;;4994361;28;20190;-82
2022/12/06 10:10:55;;;;;;;6.20;5.70;;;5.60;99.90;;;;;;4977406;28;20172;-81
2022/12/06 10:13:39;;;;;;;5.87;5.37;;;5.60;99.90;;;;;;4980689;28;20195;-81
2022/12/06 10:16:43;;;;;;;6.17;5.57;;;5.60;99.90;;;;;;4981224;28;20198;-81
2022/12/06 10:19:47;;;;;;;6.10;5.30;;;5.60;99.90;;;;;;4970112;28;20210;-82
2022/12/06 10:22:26;;;;;;;5.73;5.23;;;5.60;99.90;;;;;;4979877;28;20179;-83
2022/12/06 10:25:16;;;;;;;6.07;5.47;;;5.50;99.90;;;;;;4982125;28;20190;-82
2022/12/06 10:27:55;;;;;;;6.70;6.17;;;5.50;99.90;;;;;;4974715;28;20198;-83
2022/12/06 10:30:21;;;;;;;5.50;4.97;;;5.50;99.90;;;;;;4974846;28;20190;-83
2022/12/06 10:32:54;;;;;;;6.70;6.10;;;5.50;99.90;;;;;;4969072;28;20211;-82
2022/12/06 10:35:42;;;;;;;6.70;6.00;;;5.50;99.90;;;;;;4975137;28;20221;-82
2022/12/06 10:38:29;;;;;;;8.00;6.40;;;5.40;99.90;;;;;;4972223;28;20194;-83
2022/12/06 10:41:13;;;;;;;6.87;6.27;;;5.40;99.90;;;;;;4976978;28;20213;-82
2022/12/06 10:43:51;;;;;;;6.40;5.80;;;5.40;99.90;;;;;;4979975;28;20268;-82
2022/12/06 10:47:05;;;;;;;6.93;6.27;;;5.40;99.90;;;;;;4972998;28;20210;-80
2022/12/06 10:49:34;;;;;;;5.77;5.27;;;5.50;99.90;;;;;;4971944;28;20388;-80
2022/12/06 10:52:49;;;;;;;6.60;5.90;;;5.40;99.90;;;;;;4975808;28;20553;-79
2022/12/06 10:55:30;;;;;;;8.87;6.10;;;5.20;99.90;;;;;;4981919;28;20193;-81
2022/12/06 10:58:17;;;;;;;6.40;5.80;;;5.30;99.90;;;;;;4976502;28;20186;-83
2022/12/06 11:01:12;;;;;;;5.90;5.30;;;5.30;99.90;;;;;;4976154;28;20301;-83
2022/12/06 11:04:01;;;;;;;6.00;5.50;;;5.40;99.90;;;;;;4973218;28;20203;-80
2022/12/06 11:06:41;;;;;;;6.17;5.67;;;5.30;99.90;;;;;;4972167;28;20500;-83
2022/12/06 11:09:35;;;;;;;6.53;5.60;;;5.40;99.90;;;;;;4968086;28;20207;-83
2022/12/06 11:12:08;;;;;;;6.57;5.90;;;5.40;99.90;;;;;;4972562;28;20197;-83
2022/12/06 11:14:45;;;;;;;6.63;6.00;;;5.50;99.90;;;;;;4975321;28;20263;-82
2022/12/06 11:17:19;;;;;;;6.53;5.93;;;5.50;99.90;;;;;;4975355;28;20206;-82
2022/12/06 11:20:12;;;;;;;7.03;6.10;;;5.50;99.90;;;;;;4973840;28;20238;-82
2022/12/06 11:23:09;;;;;;;5.50;4.90;;;5.50;99.90;;;;;;4971967;28;20206;-83
2022/12/06 11:26:02;;;;;;;6.97;6.10;;;5.50;99.90;;;;;;4979162;28;20178;-81
2022/12/06 11:28:48;;;;;;;6.73;6.13;;;5.50;99.90;;;;;;4992823;28;20309;-84
2022/12/06 11:31:38;;;;;;;6.23;5.57;;;5.50;99.90;;;;;;4976981;28;20187;-83
2022/12/06 11:34:10;;;;;;;7.30;6.37;;;5.30;99.90;;;;;;4972973;28;20309;-82
2022/12/06 11:36:36;;;;;;;6.50;5.90;;;5.50;99.90;;;;;;4969070;28;20194;-82
2022/12/06 11:39:03;;;;;;;6.80;6.20;;;5.40;99.90;;;;;;4972316;28;20191;-81
2022/12/06 11:41:32;;;;;;;6.80;6.20;;;5.50;99.90;;;;;;4973699;28;20221;-82
2022/12/06 11:43:58;;;;;;;7.00;6.30;;;5.60;99.90;;;;;;4976390;28;20227;-82
2022/12/06 11:46:24;;;;;;;6.67;6.03;;;5.70;99.90;;;;;;4972957;28;20194;-83
2022/12/06 11:48:50;;;;;;;6.47;5.97;;;5.50;99.90;;;;;;4969392;28;20651;-81
2022/12/06 11:51:22;;;;;;;6.17;5.67;;;5.50;99.90;;;;;;4968947;28;20187;-82
2022/12/06 11:53:57;;;;;;;6.40;5.80;;;5.60;99.90;;;;;;4971483;28;20882;-80
2022/12/06 11:56:29;;;;;;;6.50;5.90;;;5.60;99.90;;;;;;4964137;28;20178;-82
2022/12/06 11:59:21;;;;;;;6.63;5.80;;;5.50;99.90;;;;;;4971263;28;20194;-82
2022/12/06 12:01:49;;;;;;;16.10;12.57;;;5.50;99.90;;;;;;4969833;28;20190;-81
2022/12/06 12:04:40;;;;;;;9.47;8.47;;;5.50;99.90;;;;;;4968136;28;20594;-83
2022/12/06 12:07:08;;;;;;;7.50;6.53;;;5.60;99.90;;;;;;4964909;28;20608;-82
2022/12/06 12:09:44;;;;;;;6.70;6.10;;;5.50;99.90;;;;;;4966213;28;20214;-82
2022/12/06 12:12:20;;;;;;;22.40;19.00;;;5.60;99.90;;;;;;4969025;28;20241;-83
2022/12/06 12:14:56;;;;;;;32.73;23.87;;;5.70;99.90;;;;;;4972296;28;20746;-81
2022/12/06 12:17:28;;;;;;;42.53;32.23;;;5.70;99.90;;;;;;4965766;28;20210;-81
2022/12/06 12:20:04;;;;;;;10.03;8.90;;;5.70;99.90;;;;;;4966689;28;20207;-82
2022/12/06 12:22:44;;;;;;;7.33;6.73;;;5.80;99.70;;;;;;4966110;28;20261;-83
2022/12/06 12:25:28;;;;;;;6.20;5.70;;;5.70;99.90;;;;;;4962782;28;20200;-85
2022/12/06 12:27:56;;;;;;;7.83;7.03;;;5.60;99.80;;;;;;4970586;28;21149;-82
2022/12/06 12:30:31;;;;;;;9.77;7.07;;;5.70;99.90;;;;;;4977163;28;20277;-82
2022/12/06 12:33:06;;;;;;;7.97;6.07;;;5.70;99.90;;;;;;4972228;28;20212;-81
2022/12/06 12:35:35;;;;;;;7.93;7.13;;;5.70;99.90;;;;;;4973064;28;20258;-81
2022/12/06 12:38:09;;;;;;;7.20;6.50;;;5.70;99.90;;;;;;4972422;28;20194;-84
2022/12/06 12:40:37;;;;;;;8.13;7.43;;;5.80;99.90;;;;;;4977978;28;20186;-81
2022/12/06 12:43:12;;;;;;;7.93;7.30;;;5.90;99.90;;;;;;4973254;28;20214;-84
2022/12/06 12:46:09;;;;;;;7.37;6.77;;;6.00;98.90;;;;;;4973989;28;21342;-82
2022/12/06 12:48:40;;;;;;;6.50;5.90;;;6.10;98.70;;;;;;4985591;28;20286;-82
2022/12/06 12:51:35;;;;;;;6.40;5.80;;;6.00;99.90;;;;;;4975100;28;20203;-82
2022/12/06 12:54:04;;;;;;;6.97;6.10;;;5.90;99.90;;;;;;4984762;28;20215;-81
2022/12/06 12:56:35;;;;;;;9.90;7.63;;;5.70;99.90;;;;;;4988293;28;20190;-81
2022/12/06 12:59:12;;;;;;;7.00;6.40;;;5.80;99.90;;;;;;4977986;28;20183;-83
2022/12/06 13:02:02;;;;;;;5.73;5.13;;;5.90;99.90;;;;;;4970960;28;20201;-82
2022/12/06 13:04:41;;;;;;;6.63;6.03;;;6.00;98.20;;;;;;4971152;28;20333;-82
2022/12/06 13:07:11;;;;;;;8.13;7.30;;;6.10;99.70;;;;;;4969696;28;20401;-83
2022/12/06 13:09:49;;;;;;;8.07;7.37;;;6.10;99.90;;;;;;4974712;28;20206;-82
2022/12/06 13:12:29;;;;;;;8.33;7.37;;;5.90;99.90;;;;;;4976452;28;20179;-82
2022/12/06 13:15:10;;;;;;;8.67;7.60;;;5.70;99.90;;;;;;4974153;28;20234;-82
2022/12/06 13:17:38;;;;;;;8.03;7.33;;;5.50;99.90;;;;;;4971223;28;20186;-82
2022/12/06 13:20:35;;;;;;;8.17;7.57;;;5.40;99.90;;;;;;4973251;28;20207;-81
2022/12/06 13:23:11;;;;;;;8.03;7.23;;;5.40;99.90;;;;;;4975646;28;20242;-83
2022/12/06 13:25:37;;;;;;;8.20;7.40;;;5.30;99.90;;;;;;4975545;28;20190;-83
2022/12/06 13:28:19;;;;;;;8.17;7.37;;;5.30;99.90;;;;;;4975624;28;20188;-81
2022/12/06 13:30:53;;;;;;;7.50;6.80;;;5.40;99.90;;;;;;4976789;28;20202;-81
2022/12/06 13:33:22;;;;;;;7.77;6.97;;;5.60;99.90;;;;;;4975154;28;20211;-83
2022/12/06 13:35:54;;;;;;;8.03;7.33;;;5.70;99.90;;;;;;4978792;28;20214;-82
2022/12/06 13:38:40;;;;;;;7.30;6.67;;;5.60;99.90;;;;;;4981647;28;20274;-83
2022/12/06 13:41:11;;;;;;;7.67;6.97;;;5.70;99.90;;;;;;4982082;28;20199;-81
2022/12/06 13:43:37;;;;;;;6.93;6.30;;;5.80;99.90;;;;;;4994431;28;20195;-84